createdAt,value
2023-02-11T00:00:47.503Z,34.70
2023-02-11T00:03:15.171Z,35.67
2023-02-11T00:05:42.739Z,33.00
2023-02-11T00:08:10.158Z,36.70
2023-02-11T00:10:37.645Z,32.03
2023-02-11T00:13:06.493Z,34.40
2023-02-11T00:15:33.940Z,35.83
2023-02-11T00:18:01.382Z,35.03
2023-02-11T00:20:28.885Z,35.75
2023-02-11T00:22:56.455Z,33.25
2023-02-11T00:25:23.901Z,34.55
2023-02-11T00:27:51.412Z,34.90
2023-02-11T00:30:21.092Z,37.97
2023-02-11T00:32:48.639Z,36.30
2023-02-11T00:35:16.207Z,36.10
2023-02-11T00:37:43.801Z,35.33
2023-02-11T00:40:12.599Z,34.47
2023-02-11T00:42:40.765Z,36.22
2023-02-11T00:45:09.822Z,34.17
2023-02-11T00:47:38.708Z,36.05
2023-02-11T00:50:07.628Z,34.35
2023-02-11T00:52:35.169Z,34.53
2023-02-11T00:55:02.825Z,35.60
2023-02-11T00:57:30.300Z,34.15
2023-02-11T00:59:57.770Z,36.13
2023-02-11T01:02:25.308Z,34.63
2023-02-11T01:04:54.289Z,34.65
2023-02-11T01:07:21.896Z,34.13
2023-02-11T01:09:49.359Z,32.67
2023-02-11T01:12:16.800Z,34.20
2023-02-11T01:14:44.630Z,34.97
2023-02-11T01:17:12.743Z,33.45
2023-02-11T01:19:40.330Z,34.67
2023-02-11T01:22:09.299Z,33.50
2023-02-11T01:24:36.784Z,33.65
2023-02-11T01:27:04.489Z,34.00
2023-02-11T01:29:31.964Z,32.85
2023-02-11T01:31:59.483Z,34.92
2023-02-11T01:34:27.370Z,34.60
2023-02-11T01:36:58.568Z,35.35
2023-02-11T01:39:27.527Z,33.72
2023-02-11T01:41:55.492Z,35.20
2023-02-11T01:44:25.661Z,33.45
2023-02-11T01:46:53.280Z,33.45
2023-02-11T01:49:24.434Z,34.15
2023-02-11T01:51:56.468Z,26.02
2023-02-11T01:54:45.727Z,35.92
2023-02-11T01:57:25.086Z,33.85
2023-02-11T01:59:59.868Z,33.60
2023-02-11T02:02:33.621Z,31.83
2023-02-11T02:05:06.337Z,33.03
2023-02-11T02:07:37.483Z,36.03
2023-02-11T02:10:09.916Z,34.95
2023-02-11T02:12:37.411Z,33.72
2023-02-11T02:15:26.587Z,33.92
2023-02-11T02:18:16.801Z,34.15
2023-02-11T02:21:26.114Z,33.83
2023-02-11T02:24:15.999Z,34.45
2023-02-11T02:27:14.190Z,35.45
2023-02-11T02:30:24.383Z,34.60
2023-02-11T02:32:58.548Z,35.67
2023-02-11T02:35:32.098Z,33.05
2023-02-11T02:38:03.046Z,35.42
2023-02-11T02:40:33.164Z,27.67
2023-02-11T02:43:02.019Z,34.85
2023-02-11T02:45:29.670Z,34.47
2023-02-11T02:47:59.219Z,34.90
2023-02-11T02:50:30.597Z,34.75
2023-02-11T02:53:08.681Z,34.05
2023-02-11T02:55:44.773Z,35.35
2023-02-11T02:58:40.221Z,35.20
2023-02-11T03:01:14.356Z,35.40
2023-02-11T03:03:49.408Z,34.33
2023-02-11T03:06:21.995Z,34.50
2023-02-11T03:08:53.535Z,35.47
2023-02-11T03:11:21.620Z,37.25
2023-02-11T03:13:49.939Z,36.38
2023-02-11T03:16:21.128Z,35.90
2023-02-11T03:18:52.660Z,35.10
2023-02-11T03:21:20.863Z,37.35
2023-02-11T03:23:52.531Z,36.88
2023-02-11T03:26:24.968Z,36.15
2023-02-11T03:28:56.614Z,36.05
2023-02-11T03:31:29.900Z,36.08
2023-02-11T03:34:03.273Z,36.92
2023-02-11T03:36:35.565Z,35.35
2023-02-11T03:39:04.670Z,35.42
2023-02-11T03:41:32.664Z,37.00
2023-02-11T03:44:00.678Z,35.95
2023-02-11T03:46:32.100Z,35.67
2023-02-11T03:49:04.110Z,38.15
2023-02-11T03:51:32.415Z,37.47
2023-02-11T03:54:01.264Z,38.90
2023-02-11T03:56:32.279Z,39.17
2023-02-11T03:58:59.717Z,36.60
2023-02-11T04:01:27.276Z,38.60
2023-02-11T04:03:54.751Z,39.35
2023-02-11T04:06:23.571Z,39.15
2023-02-11T04:08:50.992Z,37.90
2023-02-11T04:11:18.572Z,38.28
2023-02-11T04:13:46.158Z,38.70
2023-02-11T04:16:13.639Z,40.05
2023-02-11T04:18:41.133Z,41.78
2023-02-11T04:21:09.258Z,41.67
2023-02-11T04:23:38.106Z,40.83
2023-02-11T04:26:05.942Z,42.20
2023-02-11T04:28:33.712Z,42.90
2023-02-11T04:31:01.353Z,42.42
2023-02-11T04:33:29.116Z,41.53
2023-02-11T04:35:56.548Z,41.58
2023-02-11T04:38:24.940Z,43.58
2023-02-11T04:40:53.804Z,43.45
2023-02-11T04:43:21.330Z,42.97
2023-02-11T04:45:49.219Z,43.03
2023-02-11T04:48:16.909Z,44.55
2023-02-11T04:50:44.440Z,43.17
2023-02-11T04:53:11.896Z,44.85
2023-02-11T04:55:39.430Z,43.05
2023-02-11T04:58:08.247Z,43.35
2023-02-11T05:00:35.702Z,43.78
2023-02-11T05:03:03.151Z,42.10
2023-02-11T05:05:30.655Z,44.55
2023-02-11T05:07:58.161Z,44.25
2023-02-11T05:10:25.676Z,45.00
2023-02-11T05:12:55.697Z,45.65
2023-02-11T05:15:24.955Z,44.17
2023-02-11T05:17:52.421Z,44.65
2023-02-11T05:20:20.106Z,46.35
2023-02-11T05:22:47.666Z,48.85
2023-02-11T05:25:15.297Z,45.40
2023-02-11T05:27:42.861Z,48.67
2023-02-11T05:30:11.953Z,48.22
2023-02-11T05:32:40.786Z,46.35
2023-02-11T05:35:08.926Z,45.47
2023-02-11T05:37:36.535Z,47.65
2023-02-11T05:40:04.572Z,47.08
2023-02-11T05:42:32.048Z,47.88
2023-02-11T05:44:59.460Z,47.15
2023-02-11T05:47:26.949Z,49.80
2023-02-11T05:49:56.171Z,48.70
2023-02-11T05:52:24.329Z,46.28
2023-02-11T05:54:51.812Z,49.03
2023-02-11T05:57:19.558Z,51.00
2023-02-11T05:59:47.110Z,48.65
2023-02-11T06:02:14.622Z,51.17
2023-02-11T06:04:42.419Z,50.47
2023-02-11T06:07:11.211Z,52.08
2023-02-11T06:09:38.773Z,51.38
2023-02-11T06:12:06.475Z,50.88
2023-02-11T06:14:34.370Z,50.25
2023-02-11T06:17:01.897Z,52.47
2023-02-11T06:19:29.496Z,51.38
2023-02-11T06:21:57.145Z,50.85
2023-02-11T06:24:48.084Z,49.78
2023-02-11T06:27:13.413Z,52.63
2023-02-11T06:29:40.877Z,52.60
2023-02-11T06:32:13.532Z,54.22
2023-02-11T06:34:50.881Z,51.08
2023-02-11T06:37:18.375Z,51.63
2023-02-11T06:39:47.220Z,55.33
2023-02-11T06:42:14.792Z,51.25
2023-02-11T06:44:42.240Z,52.60
2023-02-11T06:47:09.700Z,53.53
2023-02-11T06:49:37.177Z,54.15
2023-02-11T06:52:04.960Z,55.47
2023-02-11T06:54:32.472Z,56.35
2023-02-11T06:57:01.238Z,54.35
2023-02-11T06:59:28.779Z,57.35
2023-02-11T07:01:56.393Z,56.90
2023-02-11T07:04:23.877Z,55.28
2023-02-11T07:06:51.385Z,54.28
2023-02-11T07:09:18.807Z,57.00
2023-02-11T07:11:46.268Z,54.42
2023-02-11T07:14:15.295Z,56.15
2023-02-11T07:16:42.928Z,56.60
2023-02-11T07:19:10.400Z,55.92
2023-02-11T07:21:37.893Z,56.92
2023-02-11T07:24:10.650Z,54.10
2023-02-11T07:26:38.450Z,56.72
2023-02-11T07:29:06.032Z,54.63
2023-02-11T07:31:35.009Z,54.85
2023-02-11T07:34:03.253Z,55.28
2023-02-11T07:36:32.088Z,54.78
2023-02-11T07:39:00.179Z,54.83
2023-02-11T07:41:27.875Z,55.58
2023-02-11T07:43:55.681Z,54.17
2023-02-11T07:46:26.563Z,55.20
2023-02-11T07:48:56.054Z,52.65
2023-02-11T07:51:24.892Z,54.45
2023-02-11T07:53:53.383Z,53.15
2023-02-11T07:56:21.774Z,53.33
2023-02-11T07:58:49.849Z,54.05
2023-02-11T08:01:18.968Z,50.47
2023-02-11T08:03:46.610Z,51.78
2023-02-11T08:06:17.349Z,51.65
2023-02-11T08:08:45.358Z,51.58
2023-02-11T08:11:14.783Z,51.15
2023-02-11T08:13:43.195Z,48.72
2023-02-11T08:16:11.481Z,52.40
2023-02-11T08:18:38.936Z,48.47
2023-02-11T08:21:07.405Z,51.65
2023-02-11T08:23:37.174Z,48.50
2023-02-11T08:26:05.685Z,49.67
2023-02-11T08:28:36.483Z,49.95
2023-02-11T08:31:06.940Z,47.83
2023-02-11T08:33:34.564Z,48.85
2023-02-11T08:36:02.282Z,43.67
2023-02-11T08:38:29.747Z,45.83
2023-02-11T08:41:00.621Z,44.40
2023-02-11T08:43:28.096Z,45.30
2023-02-11T08:45:55.612Z,46.88
2023-02-11T08:48:23.086Z,46.20
2023-02-11T08:50:50.543Z,48.08
2023-02-11T08:53:17.992Z,46.95
2023-02-11T08:55:50.050Z,47.67
2023-02-11T08:58:19.335Z,46.38
2023-02-11T09:00:47.154Z,47.58
2023-02-11T09:03:15.720Z,46.38
2023-02-11T09:05:43.917Z,45.53
2023-02-11T09:08:11.643Z,46.53
2023-02-11T09:10:39.481Z,47.25
2023-02-11T09:13:07.309Z,47.53
2023-02-11T09:15:36.431Z,46.15
2023-02-11T09:18:05.994Z,47.95
2023-02-11T09:20:33.643Z,45.05
2023-02-11T09:23:01.061Z,43.70
2023-02-11T09:25:28.488Z,46.25
2023-02-11T09:27:56.096Z,42.63
2023-02-11T09:30:23.821Z,47.80
2023-02-11T09:32:52.676Z,44.53
2023-02-11T09:35:20.370Z,44.47
2023-02-11T09:37:48.404Z,42.88
2023-02-11T09:40:16.568Z,43.55
2023-02-11T09:42:48.203Z,44.85
2023-02-11T09:45:20.160Z,42.42
2023-02-11T09:50:23.454Z,39.95
2023-02-11T09:52:55.339Z,43.00
2023-02-11T09:57:50.618Z,40.28
2023-02-11T10:00:23.244Z,40.08
2023-02-11T10:03:02.076Z,40.95
2023-02-11T10:05:43.166Z,41.50
2023-02-11T10:08:17.155Z,32.17
2023-02-11T10:10:50.443Z,43.40
2023-02-11T10:13:37.449Z,40.90
2023-02-11T10:16:13.752Z,41.65
2023-02-11T10:18:50.391Z,40.72
2023-02-11T10:21:25.710Z,40.67
2023-02-11T10:23:56.033Z,41.33
2023-02-11T10:26:23.849Z,41.38
2023-02-11T10:28:53.913Z,42.28
2023-02-11T10:31:26.246Z,42.60
2023-02-11T10:33:59.344Z,43.22
2023-02-11T10:36:30.142Z,41.70
2023-02-11T10:38:59.555Z,41.28
2023-02-11T10:41:32.478Z,43.67
2023-02-11T10:44:00.748Z,42.97
2023-02-11T10:46:32.542Z,44.33
2023-02-11T10:51:31.500Z,39.92
2023-02-11T10:54:14.478Z,41.60
2023-02-11T10:56:46.568Z,41.95
2023-02-11T10:59:21.425Z,41.08
2023-02-11T11:01:51.768Z,43.42
2023-02-11T11:04:38.753Z,40.15
2023-02-11T11:07:19.909Z,39.80
2023-02-11T11:09:53.510Z,31.37
2023-02-11T11:12:29.213Z,39.20
2023-02-11T11:14:58.778Z,41.22
2023-02-11T11:17:29.069Z,41.63
2023-02-11T11:20:15.183Z,39.78
2023-02-11T11:22:45.472Z,39.65
2023-02-11T11:25:24.727Z,41.83
2023-02-11T11:27:53.662Z,37.83
2023-02-11T11:30:21.557Z,39.05
2023-02-11T11:32:49.270Z,41.53
2023-02-11T11:35:26.050Z,41.22
2023-02-11T11:38:01.742Z,40.80
2023-02-11T11:40:30.983Z,43.67
2023-02-11T11:43:07.980Z,38.35
2023-02-11T11:45:35.529Z,42.47
2023-02-11T11:48:07.079Z,42.05
2023-02-11T11:50:36.514Z,41.20
2023-02-11T11:53:10.167Z,40.88
2023-02-11T11:55:42.177Z,41.33
2023-02-11T11:58:14.608Z,40.03
2023-02-11T12:00:46.013Z,40.83
2023-02-11T12:03:47.198Z,42.05
2023-02-11T12:06:22.582Z,39.72
2023-02-11T12:08:58.602Z,39.45
2023-02-11T12:11:31.359Z,39.80
2023-02-11T12:14:11.244Z,37.63
2023-02-11T12:16:46.927Z,39.15
2023-02-11T12:19:26.826Z,37.58
2023-02-11T12:21:59.148Z,37.90
2023-02-11T12:24:36.441Z,36.58
2023-02-11T12:27:07.944Z,36.13
2023-02-11T12:29:41.212Z,36.78
2023-02-11T12:32:17.675Z,35.15
2023-02-11T12:35:02.678Z,34.65
2023-02-11T12:37:38.869Z,33.78
2023-02-11T12:40:15.995Z,33.55
2023-02-11T12:43:16.642Z,33.30
2023-02-11T12:46:14.478Z,33.65
2023-02-11T12:48:54.913Z,30.38
2023-02-11T12:51:31.972Z,32.92
2023-02-11T12:54:14.988Z,30.67
2023-02-11T12:56:47.828Z,29.20
2023-02-11T12:59:19.290Z,31.08
2023-02-11T13:01:48.225Z,30.77
2023-02-11T13:04:20.743Z,30.02
2023-02-11T13:06:53.081Z,29.95
2023-02-11T13:09:24.005Z,29.08
2023-02-11T13:11:55.809Z,30.30
2023-02-11T13:14:26.018Z,28.40
2023-02-11T13:16:54.377Z,27.48
2023-02-11T13:19:27.397Z,28.60
2023-02-11T13:22:02.834Z,28.88
2023-02-11T13:24:35.829Z,27.67
2023-02-11T13:27:12.135Z,27.75
2023-02-11T13:29:50.079Z,29.75
2023-02-11T13:32:17.608Z,27.23
2023-02-11T13:34:59.227Z,26.30
2023-02-11T13:37:28.566Z,27.65
2023-02-11T13:40:00.697Z,29.77
2023-02-11T13:42:29.866Z,27.73
2023-02-11T13:44:57.776Z,27.27
2023-02-11T13:47:31.773Z,29.00
2023-02-11T13:50:01.141Z,26.85
2023-02-11T13:52:31.128Z,28.27
2023-02-11T13:55:07.510Z,27.55
2023-02-11T13:57:38.852Z,26.50
2023-02-11T14:00:48.284Z,26.67
2023-02-11T14:03:50.815Z,28.08
2023-02-11T14:06:41.415Z,27.45
2023-02-11T14:09:40.201Z,27.02
2023-02-11T14:12:34.930Z,25.30
2023-02-11T14:15:19.799Z,25.05
2023-02-11T14:17:47.365Z,24.85
2023-02-11T14:20:36.327Z,25.15
2023-02-11T14:23:04.761Z,25.75
2023-02-11T14:25:32.496Z,24.55
2023-02-11T14:28:05.467Z,24.05
2023-02-11T14:30:47.926Z,23.80
2023-02-11T14:33:25.240Z,24.35
2023-02-11T14:36:03.009Z,24.13
2023-02-11T14:38:40.790Z,22.95
2023-02-11T14:41:11.939Z,24.02
2023-02-11T14:43:41.763Z,24.13
2023-02-11T14:46:10.826Z,22.00
2023-02-11T14:48:40.508Z,24.08
2023-02-11T14:51:10.597Z,25.20
2023-02-11T14:53:39.105Z,23.58
2023-02-11T14:56:18.796Z,23.50
2023-02-11T14:58:48.720Z,23.23
2023-02-11T15:01:34.055Z,23.48
2023-02-11T15:04:02.951Z,23.42
2023-02-11T15:06:33.311Z,23.05
2023-02-11T15:09:03.948Z,23.95
2023-02-11T15:11:33.323Z,24.20
2023-02-11T15:14:08.292Z,23.65
2023-02-11T15:16:41.952Z,24.92
2023-02-11T15:19:20.182Z,23.30
2023-02-11T15:21:47.966Z,23.02
2023-02-11T15:24:25.239Z,25.08
2023-02-11T15:27:01.328Z,23.30
2023-02-11T15:29:30.593Z,25.10
2023-02-11T15:32:07.716Z,23.35
2023-02-11T15:34:35.355Z,25.50
2023-02-11T15:37:04.120Z,24.85
2023-02-11T15:39:34.267Z,24.95
2023-02-11T15:42:21.841Z,24.38
2023-02-11T15:44:56.340Z,24.02
2023-02-11T15:47:25.801Z,24.08
2023-02-11T15:49:53.279Z,24.60
2023-02-11T15:52:25.035Z,25.00
2023-02-11T15:54:53.749Z,24.45
2023-02-11T15:57:22.552Z,24.42
2023-02-11T15:59:51.586Z,24.13
2023-02-11T16:02:21.932Z,27.58
2023-02-11T16:04:52.992Z,25.65
2023-02-11T16:07:42.760Z,18.48
2023-02-11T16:10:22.462Z,24.88
2023-02-11T16:13:00.796Z,25.23
2023-02-11T16:15:42.877Z,25.27
2023-02-11T16:18:16.408Z,24.77
2023-02-11T16:20:49.191Z,24.85
2023-02-11T16:23:22.891Z,25.85
2023-02-11T16:25:53.030Z,24.63
2023-02-11T16:28:20.508Z,26.10
2023-02-11T16:30:52.895Z,26.13
2023-02-11T16:33:21.383Z,24.52
2023-02-11T16:35:50.460Z,24.60
2023-02-11T16:38:18.801Z,24.17
2023-02-11T16:40:49.280Z,26.45
2023-02-11T16:43:21.143Z,25.10
2023-02-11T16:45:48.998Z,25.40
2023-02-11T16:48:19.423Z,23.48
2023-02-11T16:50:51.516Z,25.38
2023-02-11T16:53:24.068Z,26.00
2023-02-11T16:55:55.709Z,16.30
2023-02-11T16:58:23.156Z,22.52
2023-02-11T17:00:52.063Z,24.30
2023-02-11T17:03:24.233Z,23.65
2023-02-11T17:05:55.649Z,23.08
2023-02-11T17:08:27.285Z,23.27
2023-02-11T17:10:54.847Z,25.27
2023-02-11T17:13:22.402Z,24.08
2023-02-11T17:15:50.787Z,23.65
2023-02-11T17:18:18.476Z,25.38
2023-02-11T17:20:54.682Z,23.45
2023-02-11T17:23:22.144Z,22.23
2023-02-11T17:25:57.547Z,23.95
2023-02-11T17:28:25.096Z,23.80
2023-02-11T17:30:52.641Z,25.13
2023-02-11T17:33:20.167Z,22.30
2023-02-11T17:35:47.687Z,23.17
2023-02-11T17:38:15.180Z,21.80
2023-02-11T17:40:42.708Z,23.13
2023-02-11T17:43:11.506Z,24.02
2023-02-11T17:45:42.007Z,21.38
2023-02-11T17:48:09.529Z,20.15
2023-02-11T17:50:37.457Z,22.35
2023-02-11T17:53:05.073Z,22.00
2023-02-11T17:55:34.016Z,19.50
2023-02-11T17:58:01.768Z,19.25
2023-02-11T18:00:31.195Z,19.85
2023-02-11T18:03:02.743Z,20.08
2023-02-11T18:05:34.965Z,21.15
2023-02-11T18:08:02.799Z,22.92
2023-02-11T18:10:30.397Z,19.58
2023-02-11T18:12:57.940Z,22.63
2023-02-11T18:15:25.372Z,21.02
2023-02-11T18:17:54.154Z,22.77
2023-02-11T18:20:21.826Z,20.83
2023-02-11T18:22:49.323Z,22.20
2023-02-11T18:25:18.744Z,23.20
2023-02-11T18:27:46.437Z,21.60
2023-02-11T18:30:17.022Z,23.13
2023-02-11T18:32:44.712Z,23.98
2023-02-11T18:35:15.126Z,24.27
2023-02-11T18:37:43.042Z,21.23
2023-02-11T18:40:12.248Z,21.30
2023-02-11T18:42:40.770Z,21.10
2023-02-11T18:45:10.369Z,20.63
2023-02-11T18:47:38.562Z,23.58
2023-02-11T18:50:07.819Z,22.20
2023-02-11T18:52:38.402Z,25.23
2023-02-11T18:55:06.490Z,24.55
2023-02-11T18:57:34.838Z,21.67
2023-02-11T19:00:02.344Z,24.33
2023-02-11T19:02:29.845Z,23.13
2023-02-11T19:04:57.380Z,21.67
2023-02-11T19:07:25.329Z,23.40
2023-02-11T19:09:54.261Z,24.25
2023-02-11T19:12:21.680Z,22.63
2023-02-11T19:14:49.186Z,21.35
2023-02-11T19:17:16.713Z,23.38
2023-02-11T19:19:44.228Z,22.17
2023-02-11T19:22:11.741Z,23.65
2023-02-11T19:24:39.751Z,23.23
2023-02-11T19:27:08.549Z,20.90
2023-02-11T19:29:35.998Z,21.52
2023-02-11T19:32:04.256Z,23.60
2023-02-11T19:34:31.761Z,22.50
2023-02-11T19:37:00.784Z,20.05
2023-02-11T19:39:28.358Z,23.02
2023-02-11T19:41:55.820Z,19.23
2023-02-11T19:44:24.595Z,21.00
2023-02-11T19:46:53.336Z,18.20
2023-02-11T19:49:23.358Z,22.23
2023-02-11T19:51:51.247Z,20.67
2023-02-11T19:54:20.143Z,20.20
2023-02-11T19:56:48.779Z,19.23
2023-02-11T19:59:16.932Z,21.17
2023-02-11T20:01:47.778Z,20.40
2023-02-11T20:04:15.996Z,21.67
2023-02-11T20:06:43.676Z,18.45
2023-02-11T20:09:14.194Z,20.27
2023-02-11T20:11:41.878Z,22.48
2023-02-11T20:14:10.583Z,19.90
2023-02-11T20:16:48.171Z,19.58
2023-02-11T20:19:19.030Z,20.25
2023-02-11T20:21:47.974Z,23.10
2023-02-11T20:24:15.739Z,20.23
2023-02-11T20:26:43.178Z,21.63
2023-02-11T20:29:10.641Z,21.77
2023-02-11T20:31:38.272Z,21.73
2023-02-11T20:34:05.846Z,17.80
2023-02-11T20:36:38.038Z,19.63
2023-02-11T20:39:06.332Z,18.25
2023-02-11T20:41:35.485Z,17.77
2023-02-11T20:44:05.301Z,18.45
2023-02-11T20:46:34.254Z,18.27
2023-02-11T20:49:02.245Z,18.30
2023-02-11T20:51:31.465Z,17.08
2023-02-11T20:54:00.453Z,16.98
2023-02-11T20:56:30.026Z,18.25
2023-02-11T20:58:58.192Z,17.45
2023-02-11T21:01:27.736Z,17.15
2023-02-11T21:03:57.297Z,16.92
2023-02-11T21:06:25.868Z,16.23
2023-02-11T21:08:53.917Z,15.55
2023-02-11T21:11:22.765Z,15.75
2023-02-11T21:13:51.120Z,15.80
2023-02-11T21:16:21.147Z,16.20
2023-02-11T21:18:49.260Z,17.13
2023-02-11T21:21:17.379Z,15.52
2023-02-11T21:23:45.006Z,14.68
2023-02-11T21:26:12.652Z,16.42
2023-02-11T21:28:41.972Z,15.55
2023-02-11T21:31:09.879Z,16.02
2023-02-11T21:33:37.980Z,16.65
2023-02-11T21:36:07.764Z,16.50
2023-02-11T21:38:35.271Z,16.15
2023-02-11T21:41:06.120Z,16.13
2023-02-11T21:43:34.391Z,16.20
2023-02-11T21:46:08.144Z,15.15
2023-02-11T21:48:35.778Z,16.50
2023-02-11T21:51:05.650Z,17.45
2023-02-11T21:53:33.247Z,15.90
2023-02-11T21:56:05.340Z,15.70
2023-02-11T21:58:32.968Z,17.80
2023-02-11T22:01:00.483Z,15.25
2023-02-11T22:03:29.300Z,17.20
2023-02-11T22:05:57.063Z,17.48
2023-02-11T22:08:25.030Z,16.98
2023-02-11T22:10:52.660Z,17.65
2023-02-11T22:13:20.066Z,16.42
2023-02-11T22:15:58.166Z,15.55
2023-02-11T22:18:25.852Z,17.27
2023-02-11T22:21:00.432Z,14.55
2023-02-11T22:23:28.263Z,15.70
2023-02-11T22:25:56.386Z,14.95
2023-02-11T22:28:25.351Z,15.85
2023-02-11T22:30:56.748Z,16.27
2023-02-11T22:33:25.036Z,15.13
2023-02-11T22:36:00.127Z,13.18
2023-02-11T22:38:28.557Z,14.63
2023-02-11T22:40:56.447Z,13.82
2023-02-11T22:43:24.157Z,13.93
2023-02-11T22:45:52.339Z,13.60
2023-02-11T22:48:22.991Z,14.50
2023-02-11T22:50:50.527Z,14.68
2023-02-11T22:53:19.540Z,14.32
2023-02-11T22:55:47.015Z,14.45
2023-02-11T22:58:14.683Z,14.02
2023-02-11T23:00:43.158Z,12.85
2023-02-11T23:03:11.635Z,14.40
2023-02-11T23:05:39.941Z,12.93
2023-02-11T23:08:16.483Z,13.82
2023-02-11T23:10:45.331Z,12.10
2023-02-11T23:13:13.173Z,12.65
2023-02-11T23:15:41.534Z,11.55
2023-02-11T23:18:09.714Z,12.05
2023-02-11T23:20:37.862Z,13.15
2023-02-11T23:23:05.537Z,11.30
2023-02-11T23:25:33.593Z,12.60
2023-02-11T23:28:02.535Z,11.70
2023-02-11T23:30:29.978Z,11.27
2023-02-11T23:32:57.509Z,11.15
2023-02-11T23:35:25.093Z,10.65
2023-02-11T23:37:53.262Z,11.75
2023-02-11T23:40:21.763Z,10.95
2023-02-11T23:42:49.257Z,10.95
2023-02-11T23:45:18.323Z,11.63
2023-02-11T23:47:45.853Z,11.93
2023-02-11T23:50:13.518Z,10.43
2023-02-11T23:52:41.080Z,9.88
2023-02-11T23:55:08.867Z,9.88
2023-02-11T23:57:37.055Z,10.45
